sensor_id;sensor_type;location;lat;lon;timestamp;P1;durP1;ratioP1;P2;durP2;ratioP2
24443;SDS011;13346;50.984;5.822;2023-02-28T00:00:09;7.70;;;4.73;;
24443;SDS011;13346;50.984;5.822;2023-02-28T00:02:40;9.53;;;5.30;;
24443;SDS011;13346;50.984;5.822;2023-02-28T00:05:09;7.47;;;4.27;;
24443;SDS011;13346;50.984;5.822;2023-02-28T00:07:37;7.07;;;4.43;;
24443;SDS011;13346;50.984;5.822;2023-02-28T00:10:05;6.23;;;5.50;;
24443;SDS011;13346;50.984;5.822;2023-02-28T00:12:34;6.87;;;4.77;;
24443;SDS011;13346;50.984;5.822;2023-02-28T00:15:02;12.17;;;4.87;;
24443;SDS011;13346;50.984;5.822;2023-02-28T00:17:32;8.63;;;5.03;;
24443;SDS011;13346;50.984;5.822;2023-02-28T00:20:00;5.00;;;4.60;;
24443;SDS011;13346;50.984;5.822;2023-02-28T00:22:37;3.57;;;3.37;;
24443;SDS011;13346;50.984;5.822;2023-02-28T00:25:05;4.50;;;3.10;;
24443;SDS011;13346;50.984;5.822;2023-02-28T00:27:33;5.97;;;4.30;;
24443;SDS011;13346;50.984;5.822;2023-02-28T00:30:01;6.43;;;4.13;;
24443;SDS011;13346;50.984;5.822;2023-02-28T00:32:29;4.30;;;3.93;;
24443;SDS011;13346;50.984;5.822;2023-02-28T00:34:56;5.73;;;5.20;;
24443;SDS011;13346;50.984;5.822;2023-02-28T00:37:24;6.20;;;4.97;;
24443;SDS011;13346;50.984;5.822;2023-02-28T00:39:52;5.30;;;4.93;;
24443;SDS011;13346;50.984;5.822;2023-02-28T00:42:19;7.43;;;4.97;;
24443;SDS011;13346;50.984;5.822;2023-02-28T00:44:46;4.77;;;4.37;;
24443;SDS011;13346;50.984;5.822;2023-02-28T00:47:13;7.13;;;5.17;;
24443;SDS011;13346;50.984;5.822;2023-02-28T00:49:41;6.10;;;4.93;;
24443;SDS011;13346;50.984;5.822;2023-02-28T00:52:08;4.90;;;4.27;;
24443;SDS011;13346;50.984;5.822;2023-02-28T00:54:36;6.07;;;4.73;;
24443;SDS011;13346;50.984;5.822;2023-02-28T00:57:04;8.27;;;5.10;;
24443;SDS011;13346;50.984;5.822;2023-02-28T00:59:31;9.37;;;5.40;;
24443;SDS011;13346;50.984;5.822;2023-02-28T01:01:58;4.47;;;4.10;;
24443;SDS011;13346;50.984;5.822;2023-02-28T01:04:25;8.20;;;5.13;;
24443;SDS011;13346;50.984;5.822;2023-02-28T01:06:52;5.93;;;4.87;;
24443;SDS011;13346;50.984;5.822;2023-02-28T01:09:20;7.93;;;5.53;;
24443;SDS011;13346;50.984;5.822;2023-02-28T01:11:48;5.87;;;4.83;;
24443;SDS011;13346;50.984;5.822;2023-02-28T01:14:16;5.47;;;4.77;;
24443;SDS011;13346;50.984;5.822;2023-02-28T01:16:44;8.03;;;4.77;;
24443;SDS011;13346;50.984;5.822;2023-02-28T01:19:11;6.27;;;5.67;;
24443;SDS011;13346;50.984;5.822;2023-02-28T01:21:38;7.87;;;5.27;;
24443;SDS011;13346;50.984;5.822;2023-02-28T01:24:06;7.27;;;4.63;;
24443;SDS011;13346;50.984;5.822;2023-02-28T01:26:33;5.17;;;4.77;;
24443;SDS011;13346;50.984;5.822;2023-02-28T01:29:02;8.03;;;5.30;;
24443;SDS011;13346;50.984;5.822;2023-02-28T01:31:29;6.23;;;5.40;;
24443;SDS011;13346;50.984;5.822;2023-02-28T01:33:56;5.90;;;5.37;;
24443;SDS011;13346;50.984;5.822;2023-02-28T01:36:24;5.10;;;4.60;;
24443;SDS011;13346;50.984;5.822;2023-02-28T01:38:52;8.33;;;4.93;;
24443;SDS011;13346;50.984;5.822;2023-02-28T01:41:20;5.00;;;4.50;;
24443;SDS011;13346;50.984;5.822;2023-02-28T01:43:52;6.20;;;4.87;;
24443;SDS011;13346;50.984;5.822;2023-02-28T01:46:25;5.60;;;5.10;;
24443;SDS011;13346;50.984;5.822;2023-02-28T01:48:54;5.20;;;4.80;;
24443;SDS011;13346;50.984;5.822;2023-02-28T01:51:28;6.67;;;4.77;;
24443;SDS011;13346;50.984;5.822;2023-02-28T01:54:00;6.93;;;5.30;;
24443;SDS011;13346;50.984;5.822;2023-02-28T01:56:30;5.73;;;5.20;;
24443;SDS011;13346;50.984;5.822;2023-02-28T01:59:01;6.73;;;6.03;;
24443;SDS011;13346;50.984;5.822;2023-02-28T02:01:31;7.80;;;5.40;;
24443;SDS011;13346;50.984;5.822;2023-02-28T02:03:59;6.90;;;6.20;;
24443;SDS011;13346;50.984;5.822;2023-02-28T02:06:29;5.93;;;5.43;;
24443;SDS011;13346;50.984;5.822;2023-02-28T02:09:00;6.93;;;5.47;;
24443;SDS011;13346;50.984;5.822;2023-02-28T02:11:28;10.30;;;5.57;;
24443;SDS011;13346;50.984;5.822;2023-02-28T02:14:06;6.90;;;5.73;;
24443;SDS011;13346;50.984;5.822;2023-02-28T02:16:50;5.17;;;4.77;;
24443;SDS011;13346;50.984;5.822;2023-02-28T02:23:02;6.50;;;5.67;;
24443;SDS011;13346;50.984;5.822;2023-02-28T02:25:46;6.67;;;6.07;;
24443;SDS011;13346;50.984;5.822;2023-02-28T02:31:26;6.57;;;5.77;;
24443;SDS011;13346;50.984;5.822;2023-02-28T02:37:06;8.23;;;5.70;;
24443;SDS011;13346;50.984;5.822;2023-02-28T02:39:42;7.20;;;5.53;;
24443;SDS011;13346;50.984;5.822;2023-02-28T02:42:16;6.23;;;5.70;;
24443;SDS011;13346;50.984;5.822;2023-02-28T02:44:48;9.37;;;5.80;;
24443;SDS011;13346;50.984;5.822;2023-02-28T02:47:20;6.60;;;6.00;;
24443;SDS011;13346;50.984;5.822;2023-02-28T02:49:53;6.97;;;6.07;;
24443;SDS011;13346;50.984;5.822;2023-02-28T02:52:24;8.80;;;6.00;;
24443;SDS011;13346;50.984;5.822;2023-02-28T02:54:57;6.33;;;5.80;;
24443;SDS011;13346;50.984;5.822;2023-02-28T02:57:27;4.70;;;4.30;;
24443;SDS011;13346;50.984;5.822;2023-02-28T02:59:59;6.93;;;5.87;;
24443;SDS011;13346;50.984;5.822;2023-02-28T03:02:30;8.23;;;5.77;;
24443;SDS011;13346;50.984;5.822;2023-02-28T03:05:01;6.33;;;5.67;;
24443;SDS011;13346;50.984;5.822;2023-02-28T03:07:31;6.00;;;5.50;;
24443;SDS011;13346;50.984;5.822;2023-02-28T03:09:59;10.00;;;6.00;;
24443;SDS011;13346;50.984;5.822;2023-02-28T03:12:33;9.43;;;6.00;;
24443;SDS011;13346;50.984;5.822;2023-02-28T03:15:08;6.70;;;6.10;;
24443;SDS011;13346;50.984;5.822;2023-02-28T03:17:48;9.43;;;5.80;;
24443;SDS011;13346;50.984;5.822;2023-02-28T03:20:27;8.93;;;6.10;;
24443;SDS011;13346;50.984;5.822;2023-02-28T03:23:10;8.40;;;5.70;;
24443;SDS011;13346;50.984;5.822;2023-02-28T03:25:50;6.87;;;5.87;;
24443;SDS011;13346;50.984;5.822;2023-02-28T03:28:24;8.83;;;6.53;;
24443;SDS011;13346;50.984;5.822;2023-02-28T03:30:59;6.63;;;5.93;;
24443;SDS011;13346;50.984;5.822;2023-02-28T03:33:30;6.93;;;6.00;;
24443;SDS011;13346;50.984;5.822;2023-02-28T03:36:04;7.90;;;6.63;;
24443;SDS011;13346;50.984;5.822;2023-02-28T03:38:35;7.90;;;6.40;;
24443;SDS011;13346;50.984;5.822;2023-02-28T03:41:09;9.50;;;5.03;;
24443;SDS011;13346;50.984;5.822;2023-02-28T03:43:41;6.50;;;5.43;;
24443;SDS011;13346;50.984;5.822;2023-02-28T03:46:14;9.53;;;6.27;;
24443;SDS011;13346;50.984;5.822;2023-02-28T03:48:47;9.00;;;5.67;;
24443;SDS011;13346;50.984;5.822;2023-02-28T03:51:21;9.80;;;5.40;;
24443;SDS011;13346;50.984;5.822;2023-02-28T03:53:52;8.43;;;5.83;;
24443;SDS011;13346;50.984;5.822;2023-02-28T03:56:25;7.27;;;6.37;;
24443;SDS011;13346;50.984;5.822;2023-02-28T03:58:58;6.80;;;6.20;;
24443;SDS011;13346;50.984;5.822;2023-02-28T04:01:32;8.13;;;5.43;;
24443;SDS011;13346;50.984;5.822;2023-02-28T04:04:02;6.50;;;5.90;;
24443;SDS011;13346;50.984;5.822;2023-02-28T04:06:32;8.67;;;6.33;;
24443;SDS011;13346;50.984;5.822;2023-02-28T04:09:00;13.67;;;6.30;;
24443;SDS011;13346;50.984;5.822;2023-02-28T04:11:30;9.63;;;6.43;;
24443;SDS011;13346;50.984;5.822;2023-02-28T04:14:01;7.80;;;5.80;;
24443;SDS011;13346;50.984;5.822;2023-02-28T04:16:28;11.13;;;6.30;;
24443;SDS011;13346;50.984;5.822;2023-02-28T04:18:56;6.33;;;5.70;;
24443;SDS011;13346;50.984;5.822;2023-02-28T04:21:28;7.73;;;6.90;;
24443;SDS011;13346;50.984;5.822;2023-02-28T04:23:56;7.47;;;6.77;;
24443;SDS011;13346;50.984;5.822;2023-02-28T04:26:27;15.13;;;7.17;;
24443;SDS011;13346;50.984;5.822;2023-02-28T04:28:56;8.47;;;7.10;;
24443;SDS011;13346;50.984;5.822;2023-02-28T04:31:23;8.13;;;7.03;;
24443;SDS011;13346;50.984;5.822;2023-02-28T04:33:50;11.40;;;7.40;;
24443;SDS011;13346;50.984;5.822;2023-02-28T04:36:17;12.77;;;7.67;;
24443;SDS011;13346;50.984;5.822;2023-02-28T04:38:45;14.10;;;8.03;;
24443;SDS011;13346;50.984;5.822;2023-02-28T04:41:14;10.50;;;5.83;;
24443;SDS011;13346;50.984;5.822;2023-02-28T04:43:41;8.57;;;7.50;;
24443;SDS011;13346;50.984;5.822;2023-02-28T04:46:09;7.70;;;6.30;;
24443;SDS011;13346;50.984;5.822;2023-02-28T04:48:37;11.43;;;6.23;;
24443;SDS011;13346;50.984;5.822;2023-02-28T04:51:06;11.70;;;6.07;;
24443;SDS011;13346;50.984;5.822;2023-02-28T04:53:34;6.60;;;5.97;;
24443;SDS011;13346;50.984;5.822;2023-02-28T04:56:03;9.90;;;6.30;;
24443;SDS011;13346;50.984;5.822;2023-02-28T04:58:32;8.13;;;7.03;;
24443;SDS011;13346;50.984;5.822;2023-02-28T05:01:03;7.73;;;6.23;;
24443;SDS011;13346;50.984;5.822;2023-02-28T05:03:40;9.73;;;6.43;;
24443;SDS011;13346;50.984;5.822;2023-02-28T05:06:08;7.27;;;6.63;;
24443;SDS011;13346;50.984;5.822;2023-02-28T05:08:35;6.33;;;5.73;;
24443;SDS011;13346;50.984;5.822;2023-02-28T05:11:03;5.97;;;5.37;;
24443;SDS011;13346;50.984;5.822;2023-02-28T05:13:35;8.47;;;6.40;;
24443;SDS011;13346;50.984;5.822;2023-02-28T05:16:02;7.50;;;6.40;;
24443;SDS011;13346;50.984;5.822;2023-02-28T05:18:29;13.93;;;7.60;;
24443;SDS011;13346;50.984;5.822;2023-02-28T05:20:56;9.77;;;7.60;;
24443;SDS011;13346;50.984;5.822;2023-02-28T05:23:23;7.90;;;7.10;;
24443;SDS011;13346;50.984;5.822;2023-02-28T05:25:51;7.80;;;5.73;;
24443;SDS011;13346;50.984;5.822;2023-02-28T05:28:19;9.77;;;6.67;;
24443;SDS011;13346;50.984;5.822;2023-02-28T05:30:47;10.40;;;6.77;;
24443;SDS011;13346;50.984;5.822;2023-02-28T05:33:15;11.57;;;7.43;;
24443;SDS011;13346;50.984;5.822;2023-02-28T05:35:42;7.93;;;7.00;;
24443;SDS011;13346;50.984;5.822;2023-02-28T05:38:09;11.53;;;8.37;;
24443;SDS011;13346;50.984;5.822;2023-02-28T05:40:37;8.30;;;6.50;;
24443;SDS011;13346;50.984;5.822;2023-02-28T05:43:05;10.07;;;6.57;;
24443;SDS011;13346;50.984;5.822;2023-02-28T05:45:35;7.77;;;6.63;;
24443;SDS011;13346;50.984;5.822;2023-02-28T05:48:04;10.37;;;6.40;;
24443;SDS011;13346;50.984;5.822;2023-02-28T05:50:31;8.33;;;6.83;;
24443;SDS011;13346;50.984;5.822;2023-02-28T05:52:58;7.43;;;6.47;;
24443;SDS011;13346;50.984;5.822;2023-02-28T05:55:26;7.07;;;6.37;;
24443;SDS011;13346;50.984;5.822;2023-02-28T05:57:53;6.67;;;5.60;;
24443;SDS011;13346;50.984;5.822;2023-02-28T06:00:21;7.33;;;6.27;;
24443;SDS011;13346;50.984;5.822;2023-02-28T06:02:49;6.57;;;5.90;;
24443;SDS011;13346;50.984;5.822;2023-02-28T06:05:19;5.90;;;4.87;;
24443;SDS011;13346;50.984;5.822;2023-02-28T06:07:47;6.10;;;5.50;;
24443;SDS011;13346;50.984;5.822;2023-02-28T06:10:15;7.60;;;5.10;;
24443;SDS011;13346;50.984;5.822;2023-02-28T06:12:42;5.80;;;5.30;;
24443;SDS011;13346;50.984;5.822;2023-02-28T06:15:11;5.70;;;5.20;;
24443;SDS011;13346;50.984;5.822;2023-02-28T06:17:39;5.00;;;4.57;;
24443;SDS011;13346;50.984;5.822;2023-02-28T06:20:07;5.83;;;5.40;;
24443;SDS011;13346;50.984;5.822;2023-02-28T06:22:39;6.60;;;5.47;;
24443;SDS011;13346;50.984;5.822;2023-02-28T06:25:07;5.97;;;5.13;;
24443;SDS011;13346;50.984;5.822;2023-02-28T06:27:35;6.00;;;5.20;;
24443;SDS011;13346;50.984;5.822;2023-02-28T06:30:03;4.40;;;4.00;;
24443;SDS011;13346;50.984;5.822;2023-02-28T06:32:31;5.73;;;5.07;;
24443;SDS011;13346;50.984;5.822;2023-02-28T06:34:58;3.97;;;3.33;;
24443;SDS011;13346;50.984;5.822;2023-02-28T06:37:25;7.40;;;6.43;;
24443;SDS011;13346;50.984;5.822;2023-02-28T06:39:54;6.37;;;5.37;;
24443;SDS011;13346;50.984;5.822;2023-02-28T06:42:22;7.77;;;5.30;;
24443;SDS011;13346;50.984;5.822;2023-02-28T06:44:50;5.37;;;4.97;;
24443;SDS011;13346;50.984;5.822;2023-02-28T06:47:17;6.10;;;5.33;;
24443;SDS011;13346;50.984;5.822;2023-02-28T06:49:45;5.47;;;4.97;;
24443;SDS011;13346;50.984;5.822;2023-02-28T06:52:12;6.27;;;5.60;;
24443;SDS011;13346;50.984;5.822;2023-02-28T06:54:39;4.87;;;4.50;;
24443;SDS011;13346;50.984;5.822;2023-02-28T06:57:07;5.20;;;4.90;;
24443;SDS011;13346;50.984;5.822;2023-02-28T06:59:35;11.63;;;5.50;;
24443;SDS011;13346;50.984;5.822;2023-02-28T07:02:02;6.00;;;4.53;;
24443;SDS011;13346;50.984;5.822;2023-02-28T07:04:31;6.00;;;5.27;;
24443;SDS011;13346;50.984;5.822;2023-02-28T07:06:58;8.13;;;4.70;;
24443;SDS011;13346;50.984;5.822;2023-02-28T07:09:25;7.03;;;5.13;;
24443;SDS011;13346;50.984;5.822;2023-02-28T07:11:55;5.93;;;4.20;;
24443;SDS011;13346;50.984;5.822;2023-02-28T07:14:24;7.63;;;5.10;;
24443;SDS011;13346;50.984;5.822;2023-02-28T07:16:51;4.83;;;4.03;;
24443;SDS011;13346;50.984;5.822;2023-02-28T07:19:18;5.67;;;4.10;;
24443;SDS011;13346;50.984;5.822;2023-02-28T07:21:45;7.20;;;3.97;;
24443;SDS011;13346;50.984;5.822;2023-02-28T07:24:13;4.27;;;4.00;;
24443;SDS011;13346;50.984;5.822;2023-02-28T07:26:43;4.13;;;3.53;;
24443;SDS011;13346;50.984;5.822;2023-02-28T07:29:10;4.43;;;4.03;;
24443;SDS011;13346;50.984;5.822;2023-02-28T07:31:38;4.90;;;4.27;;
24443;SDS011;13346;50.984;5.822;2023-02-28T07:34:06;4.53;;;3.53;;
24443;SDS011;13346;50.984;5.822;2023-02-28T07:36:33;2.77;;;2.57;;
24443;SDS011;13346;50.984;5.822;2023-02-28T07:39:00;3.23;;;3.03;;
24443;SDS011;13346;50.984;5.822;2023-02-28T07:41:27;4.67;;;2.20;;
24443;SDS011;13346;50.984;5.822;2023-02-28T07:43:55;2.93;;;2.70;;
24443;SDS011;13346;50.984;5.822;2023-02-28T07:46:22;4.03;;;3.63;;
24443;SDS011;13346;50.984;5.822;2023-02-28T07:48:51;3.80;;;3.20;;
24443;SDS011;13346;50.984;5.822;2023-02-28T07:51:20;3.83;;;2.90;;
24443;SDS011;13346;50.984;5.822;2023-02-28T07:53:49;6.57;;;3.77;;
24443;SDS011;13346;50.984;5.822;2023-02-28T07:56:16;7.93;;;3.70;;
24443;SDS011;13346;50.984;5.822;2023-02-28T07:58:43;9.47;;;4.30;;
24443;SDS011;13346;50.984;5.822;2023-02-28T08:01:11;4.73;;;4.23;;
24443;SDS011;13346;50.984;5.822;2023-02-28T08:03:38;4.67;;;3.93;;
24443;SDS011;13346;50.984;5.822;2023-02-28T08:06:09;2.73;;;2.47;;
24443;SDS011;13346;50.984;5.822;2023-02-28T08:08:42;2.63;;;2.43;;
24443;SDS011;13346;50.984;5.822;2023-02-28T08:11:09;3.47;;;3.17;;
24443;SDS011;13346;50.984;5.822;2023-02-28T08:13:36;4.33;;;2.13;;
24443;SDS011;13346;50.984;5.822;2023-02-28T08:16:04;1.93;;;1.80;;
24443;SDS011;13346;50.984;5.822;2023-02-28T08:18:32;5.50;;;2.57;;
24443;SDS011;13346;50.984;5.822;2023-02-28T08:20:59;1.07;;;1.07;;
24443;SDS011;13346;50.984;5.822;2023-02-28T08:23:33;3.37;;;3.07;;
24443;SDS011;13346;50.984;5.822;2023-02-28T08:26:00;2.40;;;2.23;;
24443;SDS011;13346;50.984;5.822;2023-02-28T08:28:28;2.50;;;1.07;;
24443;SDS011;13346;50.984;5.822;2023-02-28T08:30:56;1.60;;;1.50;;
24443;SDS011;13346;50.984;5.822;2023-02-28T08:33:24;1.97;;;1.23;;
24443;SDS011;13346;50.984;5.822;2023-02-28T08:35:52;1.63;;;1.53;;
24443;SDS011;13346;50.984;5.822;2023-02-28T08:38:20;3.23;;;2.63;;
24443;SDS011;13346;50.984;5.822;2023-02-28T08:40:49;3.33;;;2.80;;
24443;SDS011;13346;50.984;5.822;2023-02-28T08:43:23;1.43;;;1.43;;
24443;SDS011;13346;50.984;5.822;2023-02-28T08:45:51;5.27;;;1.47;;
24443;SDS011;13346;50.984;5.822;2023-02-28T08:48:18;1.67;;;1.57;;
24443;SDS011;13346;50.984;5.822;2023-02-28T08:50:54;13.00;;;1.90;;
24443;SDS011;13346;50.984;5.822;2023-02-28T08:53:21;0.77;;;0.77;;
24443;SDS011;13346;50.984;5.822;2023-02-28T08:55:56;4.07;;;2.57;;
24443;SDS011;13346;50.984;5.822;2023-02-28T08:58:24;2.20;;;2.10;;
24443;SDS011;13346;50.984;5.822;2023-02-28T09:00:51;1.77;;;1.67;;
24443;SDS011;13346;50.984;5.822;2023-02-28T09:03:19;2.30;;;2.10;;
24443;SDS011;13346;50.984;5.822;2023-02-28T09:05:54;3.37;;;2.60;;
24443;SDS011;13346;50.984;5.822;2023-02-28T09:08:21;1.40;;;1.30;;
24443;SDS011;13346;50.984;5.822;2023-02-28T09:10:49;1.83;;;1.63;;
24443;SDS011;13346;50.984;5.822;2023-02-28T09:13:18;1.50;;;1.40;;
24443;SDS011;13346;50.984;5.822;2023-02-28T09:15:46;3.10;;;2.80;;
24443;SDS011;13346;50.984;5.822;2023-02-28T09:18:13;2.60;;;2.40;;
24443;SDS011;13346;50.984;5.822;2023-02-28T09:20:40;2.10;;;2.00;;
24443;SDS011;13346;50.984;5.822;2023-02-28T09:23:09;1.23;;;1.23;;
24443;SDS011;13346;50.984;5.822;2023-02-28T09:25:37;2.10;;;1.90;;
24443;SDS011;13346;50.984;5.822;2023-02-28T09:28:11;1.63;;;1.53;;
24443;SDS011;13346;50.984;5.822;2023-02-28T09:30:40;1.23;;;0.80;;
24443;SDS011;13346;50.984;5.822;2023-02-28T09:33:08;1.17;;;1.17;;
24443;SDS011;13346;50.984;5.822;2023-02-28T09:35:35;0.90;;;0.90;;
24443;SDS011;13346;50.984;5.822;2023-02-28T09:38:03;2.50;;;0.90;;
24443;SDS011;13346;50.984;5.822;2023-02-28T09:40:34;2.30;;;2.10;;
24443;SDS011;13346;50.984;5.822;2023-02-28T09:43:03;3.47;;;1.60;;
24443;SDS011;13346;50.984;5.822;2023-02-28T09:45:31;1.37;;;1.10;;
24443;SDS011;13346;50.984;5.822;2023-02-28T09:48:06;1.60;;;1.30;;
24443;SDS011;13346;50.984;5.822;2023-02-28T09:50:40;6.37;;;1.80;;
24443;SDS011;13346;50.984;5.822;2023-02-28T09:53:13;1.27;;;0.90;;
24443;SDS011;13346;50.984;5.822;2023-02-28T09:55:47;1.00;;;1.00;;
24443;SDS011;13346;50.984;5.822;2023-02-28T09:58:18;0.90;;;0.90;;
24443;SDS011;13346;50.984;5.822;2023-02-28T10:00:51;4.93;;;2.13;;
24443;SDS011;13346;50.984;5.822;2023-02-28T10:03:27;1.40;;;1.40;;
24443;SDS011;13346;50.984;5.822;2023-02-28T10:05:59;0.70;;;0.70;;
24443;SDS011;13346;50.984;5.822;2023-02-28T10:08:34;1.03;;;1.03;;
24443;SDS011;13346;50.984;5.822;2023-02-28T10:11:09;1.70;;;1.70;;
24443;SDS011;13346;50.984;5.822;2023-02-28T10:13:41;1.23;;;1.20;;
24443;SDS011;13346;50.984;5.822;2023-02-28T10:16:22;1.67;;;1.57;;
24443;SDS011;13346;50.984;5.822;2023-02-28T10:18:56;1.67;;;1.57;;
24443;SDS011;13346;50.984;5.822;2023-02-28T10:21:26;1.07;;;1.07;;
24443;SDS011;13346;50.984;5.822;2023-02-28T10:24:01;0.63;;;0.63;;
24443;SDS011;13346;50.984;5.822;2023-02-28T10:26:32;1.57;;;1.47;;
24443;SDS011;13346;50.984;5.822;2023-02-28T10:28:59;1.57;;;1.47;;
24443;SDS011;13346;50.984;5.822;2023-02-28T10:31:27;1.03;;;1.03;;
24443;SDS011;13346;50.984;5.822;2023-02-28T10:33:56;1.37;;;1.37;;
24443;SDS011;13346;50.984;5.822;2023-02-28T10:36:24;1.30;;;1.13;;
24443;SDS011;13346;50.984;5.822;2023-02-28T10:38:51;1.10;;;1.07;;
24443;SDS011;13346;50.984;5.822;2023-02-28T10:41:27;1.37;;;1.37;;
24443;SDS011;13346;50.984;5.822;2023-02-28T10:46:46;1.13;;;1.13;;
24443;SDS011;13346;50.984;5.822;2023-02-28T10:49:17;1.77;;;1.27;;
24443;SDS011;13346;50.984;5.822;2023-02-28T10:51:47;0.97;;;0.97;;
24443;SDS011;13346;50.984;5.822;2023-02-28T10:54:18;1.47;;;1.43;;
24443;SDS011;13346;50.984;5.822;2023-02-28T10:59:34;0.70;;;0.70;;
24443;SDS011;13346;50.984;5.822;2023-02-28T11:02:08;1.00;;;0.97;;
24443;SDS011;13346;50.984;5.822;2023-02-28T11:05:00;1.30;;;1.20;;
24443;SDS011;13346;50.984;5.822;2023-02-28T11:07:27;0.90;;;0.90;;
24443;SDS011;13346;50.984;5.822;2023-02-28T11:09:55;0.70;;;0.70;;
24443;SDS011;13346;50.984;5.822;2023-02-28T11:12:25;0.90;;;0.80;;
24443;SDS011;13346;50.984;5.822;2023-02-28T11:14:55;1.47;;;1.37;;
24443;SDS011;13346;50.984;5.822;2023-02-28T11:17:25;0.73;;;0.73;;
24443;SDS011;13346;50.984;5.822;2023-02-28T11:19:55;1.07;;;0.97;;
24443;SDS011;13346;50.984;5.822;2023-02-28T11:22:27;0.83;;;0.83;;
24443;SDS011;13346;50.984;5.822;2023-02-28T11:24:57;1.60;;;1.60;;
24443;SDS011;13346;50.984;5.822;2023-02-28T11:27:40;1.40;;;1.40;;
24443;SDS011;13346;50.984;5.822;2023-02-28T11:32:59;0.70;;;0.70;;
24443;SDS011;13346;50.984;5.822;2023-02-28T11:35:28;1.43;;;1.33;;
24443;SDS011;13346;50.984;5.822;2023-02-28T11:38:02;1.07;;;1.00;;
24443;SDS011;13346;50.984;5.822;2023-02-28T11:40:31;1.57;;;1.57;;
24443;SDS011;13346;50.984;5.822;2023-02-28T11:43:13;2.13;;;1.60;;
24443;SDS011;13346;50.984;5.822;2023-02-28T11:45:55;1.40;;;1.40;;
24443;SDS011;13346;50.984;5.822;2023-02-28T11:48:34;1.60;;;1.37;;
24443;SDS011;13346;50.984;5.822;2023-02-28T11:51:10;1.53;;;1.53;;
24443;SDS011;13346;50.984;5.822;2023-02-28T11:53:47;2.20;;;1.70;;
24443;SDS011;13346;50.984;5.822;2023-02-28T11:56:26;1.63;;;1.63;;
24443;SDS011;13346;50.984;5.822;2023-02-28T11:59:04;1.20;;;1.20;;
24443;SDS011;13346;50.984;5.822;2023-02-28T12:01:51;1.90;;;1.37;;
24443;SDS011;13346;50.984;5.822;2023-02-28T12:04:32;1.70;;;1.60;;
24443;SDS011;13346;50.984;5.822;2023-02-28T12:07:11;2.63;;;2.47;;
24443;SDS011;13346;50.984;5.822;2023-02-28T12:09:50;0.73;;;0.73;;
24443;SDS011;13346;50.984;5.822;2023-02-28T12:12:28;1.50;;;1.50;;
24443;SDS011;13346;50.984;5.822;2023-02-28T12:15:16;1.40;;;1.40;;
24443;SDS011;13346;50.984;5.822;2023-02-28T12:18:04;2.10;;;2.00;;
24443;SDS011;13346;50.984;5.822;2023-02-28T12:20:52;1.90;;;1.80;;
24443;SDS011;13346;50.984;5.822;2023-02-28T12:23:28;1.27;;;1.17;;
24443;SDS011;13346;50.984;5.822;2023-02-28T12:26:15;1.50;;;1.40;;
24443;SDS011;13346;50.984;5.822;2023-02-28T12:28:47;1.60;;;1.50;;
24443;SDS011;13346;50.984;5.822;2023-02-28T12:31:18;1.50;;;1.50;;
24443;SDS011;13346;50.984;5.822;2023-02-28T12:33:50;2.40;;;1.50;;
24443;SDS011;13346;50.984;5.822;2023-02-28T12:36:19;1.87;;;1.77;;
24443;SDS011;13346;50.984;5.822;2023-02-28T12:38:50;0.90;;;0.90;;
24443;SDS011;13346;50.984;5.822;2023-02-28T12:41:22;2.10;;;2.00;;
24443;SDS011;13346;50.984;5.822;2023-02-28T12:43:57;1.90;;;1.80;;
24443;SDS011;13346;50.984;5.822;2023-02-28T12:46:29;1.63;;;1.53;;
24443;SDS011;13346;50.984;5.822;2023-02-28T12:49:01;1.90;;;1.80;;
24443;SDS011;13346;50.984;5.822;2023-02-28T12:51:32;4.43;;;1.03;;
24443;SDS011;13346;50.984;5.822;2023-02-28T12:54:04;1.70;;;1.50;;
24443;SDS011;13346;50.984;5.822;2023-02-28T12:56:43;2.07;;;1.93;;
24443;SDS011;13346;50.984;5.822;2023-02-28T12:59:17;1.80;;;1.70;;
24443;SDS011;13346;50.984;5.822;2023-02-28T13:02:02;1.80;;;1.70;;
24443;SDS011;13346;50.984;5.822;2023-02-28T13:04:57;1.70;;;0.83;;
24443;SDS011;13346;50.984;5.822;2023-02-28T13:07:50;2.37;;;2.27;;
24443;SDS011;13346;50.984;5.822;2023-02-28T13:10:38;2.10;;;1.90;;
24443;SDS011;13346;50.984;5.822;2023-02-28T13:13:12;2.50;;;2.30;;
24443;SDS011;13346;50.984;5.822;2023-02-28T13:15:56;2.20;;;2.10;;
24443;SDS011;13346;50.984;5.822;2023-02-28T13:18:29;2.00;;;1.87;;
24443;SDS011;13346;50.984;5.822;2023-02-28T13:21:01;1.70;;;1.70;;
24443;SDS011;13346;50.984;5.822;2023-02-28T13:29:34;2.03;;;1.90;;
24443;SDS011;13346;50.984;5.822;2023-02-28T13:32:19;2.13;;;1.80;;
24443;SDS011;13346;50.984;5.822;2023-02-28T13:38:22;2.70;;;2.30;;
24443;SDS011;13346;50.984;5.822;2023-02-28T13:43:59;1.87;;;1.43;;
24443;SDS011;13346;50.984;5.822;2023-02-28T13:46:30;0.80;;;0.80;;
24443;SDS011;13346;50.984;5.822;2023-02-28T13:51:46;2.93;;;1.53;;
24443;SDS011;13346;50.984;5.822;2023-02-28T13:54:21;0.60;;;0.60;;
24443;SDS011;13346;50.984;5.822;2023-02-28T13:57:01;3.33;;;1.97;;
24443;SDS011;13346;50.984;5.822;2023-02-28T13:59:44;1.17;;;0.90;;
24443;SDS011;13346;50.984;5.822;2023-02-28T14:05:28;1.37;;;1.33;;
24443;SDS011;13346;50.984;5.822;2023-02-28T14:07:58;1.70;;;1.60;;
24443;SDS011;13346;50.984;5.822;2023-02-28T14:10:32;1.47;;;1.37;;
24443;SDS011;13346;50.984;5.822;2023-02-28T14:13:10;2.20;;;2.00;;
24443;SDS011;13346;50.984;5.822;2023-02-28T14:15:43;1.60;;;1.40;;
24443;SDS011;13346;50.984;5.822;2023-02-28T14:18:17;1.57;;;1.57;;
24443;SDS011;13346;50.984;5.822;2023-02-28T14:20:57;2.77;;;1.80;;
24443;SDS011;13346;50.984;5.822;2023-02-28T14:23:34;2.27;;;1.40;;
24443;SDS011;13346;50.984;5.822;2023-02-28T14:30:01;3.50;;;1.97;;
24443;SDS011;13346;50.984;5.822;2023-02-28T14:33:01;2.17;;;2.07;;
24443;SDS011;13346;50.984;5.822;2023-02-28T14:38:31;2.00;;;1.90;;
24443;SDS011;13346;50.984;5.822;2023-02-28T14:41:04;1.73;;;1.67;;
24443;SDS011;13346;50.984;5.822;2023-02-28T14:43:47;2.40;;;2.30;;
24443;SDS011;13346;50.984;5.822;2023-02-28T14:46:15;2.13;;;1.93;;
24443;SDS011;13346;50.984;5.822;2023-02-28T14:48:45;2.00;;;1.90;;
24443;SDS011;13346;50.984;5.822;2023-02-28T14:51:17;2.37;;;2.13;;
24443;SDS011;13346;50.984;5.822;2023-02-28T14:53:47;2.33;;;2.13;;
24443;SDS011;13346;50.984;5.822;2023-02-28T14:56:21;2.90;;;1.83;;
24443;SDS011;13346;50.984;5.822;2023-02-28T14:58:53;2.80;;;2.20;;
24443;SDS011;13346;50.984;5.822;2023-02-28T15:01:22;1.50;;;1.50;;
24443;SDS011;13346;50.984;5.822;2023-02-28T15:03:58;2.07;;;1.87;;
24443;SDS011;13346;50.984;5.822;2023-02-28T15:06:29;2.30;;;2.10;;
24443;SDS011;13346;50.984;5.822;2023-02-28T15:09:07;1.73;;;1.63;;
24443;SDS011;13346;50.984;5.822;2023-02-28T15:11:41;1.57;;;1.50;;
24443;SDS011;13346;50.984;5.822;2023-02-28T15:14:15;2.03;;;1.93;;
24443;SDS011;13346;50.984;5.822;2023-02-28T15:16:46;1.77;;;1.67;;
24443;SDS011;13346;50.984;5.822;2023-02-28T15:19:20;2.77;;;1.60;;
24443;SDS011;13346;50.984;5.822;2023-02-28T15:21:52;2.00;;;1.90;;
24443;SDS011;13346;50.984;5.822;2023-02-28T15:24:27;2.57;;;1.83;;
24443;SDS011;13346;50.984;5.822;2023-02-28T15:27:04;1.50;;;1.23;;
24443;SDS011;13346;50.984;5.822;2023-02-28T15:29:36;2.27;;;2.07;;
24443;SDS011;13346;50.984;5.822;2023-02-28T15:32:20;1.10;;;1.10;;
24443;SDS011;13346;50.984;5.822;2023-02-28T15:34:51;2.03;;;1.93;;
24443;SDS011;13346;50.984;5.822;2023-02-28T15:37:33;1.93;;;1.83;;
24443;SDS011;13346;50.984;5.822;2023-02-28T15:40:09;2.20;;;2.00;;
24443;SDS011;13346;50.984;5.822;2023-02-28T15:42:40;1.77;;;1.67;;
24443;SDS011;13346;50.984;5.822;2023-02-28T15:45:28;1.70;;;1.60;;
24443;SDS011;13346;50.984;5.822;2023-02-28T15:48:02;2.07;;;1.93;;
24443;SDS011;13346;50.984;5.822;2023-02-28T15:50:30;2.80;;;2.37;;
24443;SDS011;13346;50.984;5.822;2023-02-28T15:52:59;2.43;;;2.27;;
24443;SDS011;13346;50.984;5.822;2023-02-28T15:55:28;1.40;;;1.27;;